• Join FlightAware (Why Join?)
  • Login
  • US Flag 
05:57PM EDT


 

Airport Tracker/Info


-or-


 

Live Flight TrackerFlight Track Log ✈ EJA904 ✈ 16-Jul-2013 ✈ KSUA - KMSY

Flight Track Log - Related Links

Times and Time Zones

All times are in EDT time to prevent confusion due to time zone crossing. See the EJA904 flight status page for this flight to view local times or setup timezone preferences in your user account.

Time Position Orientation Groundspeed Altitude Reporting Facility
EDT Latitude Longitude Course Direction KTS MPH feet Rate Location/Type
06:20PM 27.1425 -80.1269 115° Southeast 209 241 3,000  Level Miami Center
06:21PM 27.0875 -80.1581 207° Southwest 194 223 4,000 900 Climbing Miami Center
06:22PM 27.1253 -80.2406 297° West 200 230 4,800 900 Climbing Miami Center
06:23PM 27.1758 -80.3075 310° West 256 295 5,900 2,100 Climbing Miami Center
06:24PM 27.2306 -80.3700 315° West 297 342 9,000 3,000 Climbing Miami Center
06:25PM 27.2917 -80.4394 315° West 309 356 12,000 3,240 Climbing Miami Center
06:26PM 27.3606 -80.5189 314° West 315 362 15,500 3,060 Climbing Miami Center
06:27PM 27.4214 -80.5956 312° West 320 368 18,200 2,460 Climbing Miami Center
06:28PM 27.4864 -80.6656 316° Northwest 320 368 20,500 2,160 Climbing Miami Center
06:29PM 27.5531 -80.7450 313° West 330 380 22,600 1,380 Climbing Miami Center
06:30PM 27.6239 -80.8225 316° Northwest 355 409 23,300 900 Climbing Miami Center
06:31PM 27.7069 -80.9144 316° Northwest 389 448 24,400 1,200 Climbing Miami Center
06:32PM 27.7858 -81.0089 313° West 406 467 25,700 1,440 Climbing Miami Center
06:33PM 27.8706 -81.1106 313° West 411 473 27,300 1,440 Climbing Miami Center
06:34PM 27.9531 -81.2100 313° West 411 473 28,600 1,260 Climbing Miami Center
06:35PM 28.0336 -81.3025 315° West 437 503 29,900 1,440 Climbing Miami Center
06:37PM 28.1861 -81.4797 314° West 441 507 32,600 1,560 Climbing Jacksonville Center
06:38PM 28.2789 -81.5844 315° West 454 522 34,300 1,980 Climbing Jacksonville Center
06:39PM 28.3719 -81.6964 313° West 466 536 36,600 2,400 Climbing Jacksonville Center
06:40PM 28.4561 -81.8017 312° West 466 536 39,200 2,040 Climbing Jacksonville Center
06:41PM 28.5425 -81.9025 314° West 460 529 40,700 1,380 Climbing Jacksonville Center
06:42PM 28.6289 -82.0056 314° West 454 522 42,000 960 Climbing Jacksonville Center
06:43PM 28.7153 -82.1089 314° West 449 517 42,700 480 Climbing Jacksonville Center
06:44PM 28.8056 -82.2172 314° West 454 522 43,000 120 Climbing Jacksonville Center
06:45PM 28.9000 -82.3281 314° West 469 540 43,000  Level Jacksonville Center
06:46PM 28.9903 -82.4417 312° West 475 547 43,000  Level Jacksonville Center
06:47PM 29.0867 -82.5553 314° West 486 559 43,000  Level Jacksonville Center
06:48PM 29.1911 -82.6642 318° Northwest 498 573 43,000  Level Jacksonville Center
06:49PM 29.3019 -82.7639 322° Northwest 503 579 43,000  Level Jacksonville Center
06:50PM 29.4125 -82.8569 324° Northwest 503 579 43,000 -60 Level Jacksonville Center
06:51PM 29.5233 -82.9617 321° Northwest 501 577 42,900  Descending Jacksonville Center
06:52PM 29.6128 -83.0789 311° West 494 568 43,000  Climbing Jacksonville Center
06:53PM 29.6983 -83.1986 309° West 494 568 43,000  Level Jacksonville Center
06:54PM 29.7897 -83.3208 311° West 499 574 43,000  Level Jacksonville Center
06:55PM 29.8875 -83.4531 310° West 499 574 43,000 -60 Level Jacksonville Center
06:56PM 29.9786 -83.5761 311° West 499 574 42,900 -60 Descending Jacksonville Center
06:57PM 30.0697 -83.7014 310° West 504 580 42,900  Level Jacksonville Center
06:58PM 30.1586 -83.8247 310° West 504 580 43,000  Climbing Jacksonville Center
06:59PM 30.2497 -83.9483 310° West 504 580 43,000 -60 Level Jacksonville Center
07:00PM 30.3425 -84.0744 310° West 504 580 42,900  Descending Jacksonville Center
07:01PM 30.4125 -84.1739 309° West 504 580 43,000  Climbing Jacksonville Center
07:02PM 30.5092 -84.3103 309° West 504 580 42,900  Descending Jacksonville Center
07:03PM 30.5847 -84.4658 299° West 491 565 43,000  Climbing Jacksonville Center
07:04PM 30.6289 -84.6017 291° West 498 573 43,000  Level Jacksonville Center
07:05PM 30.6747 -84.7547 289° West 510 587 43,000  Level Jacksonville Center
07:06PM 30.7283 -84.9297 290° West 516 594 43,000  Level Jacksonville Center
07:07PM 30.7800 -85.0808 292° West 516 594 43,000  Level Jacksonville Center
07:08PM 30.8633 -85.2111 307° West 494 568 43,000  Level Jacksonville Center
07:09PM 30.9444 -85.3439 305° West 499 574 43,000  Level Jacksonville Center
07:10PM 30.9686 -85.4994 280° West 493 567 43,000 -60 Level Jacksonville Center
07:11PM 30.9714 -85.6619 271° West 490 564 42,900 -60 Descending Jacksonville Center
07:12PM 30.9739 -85.8267 271° West 504 580 42,900  Level Jacksonville Center
07:13PM 30.9764 -85.9892 271° West 504 580 43,000  Climbing Jacksonville Center
07:14PM 30.9703 -86.1464 267° West 499 574 43,000  Level Jacksonville Center
07:15PM 30.9514 -86.3056 262° West 499 574 43,000  Level Jacksonville Center
07:16PM 30.9389 -86.4650 265° West 499 574 43,000  Level Jacksonville Center
07:17PM 30.9194 -86.6239 262° West 499 574 43,000  Level Jacksonville Center
07:18PM 30.9044 -86.7831 264° West 499 574 43,000  Level Jacksonville Center
07:19PM 30.8722 -86.9439 257° West 499 574 43,000  Level Jacksonville Center
07:20PM 30.8378 -87.1022 256° West 504 580 43,000  Level Jacksonville Center
07:21PM 30.8056 -87.2578 256° West 504 580 43,000 -840 Level Jacksonville Center
07:23PM 30.7458 -87.5311 256° West 494 568 40,800 -1,800 Descending Houston Center
07:24PM 30.7150 -87.6789 256° West 474 545 38,000 -2,760 Descending Houston Center
07:25PM 30.6822 -87.8250 255° West 468 539 35,200 -2,760 Descending Houston Center
07:26PM 30.6500 -87.9753 256° West 475 547 32,400 -1,560 Descending Houston Center
07:27PM 30.6153 -88.1344 256° West 504 580 32,000 -1,020 Descending Houston Center
07:28PM 30.5786 -88.3019 256° West 530 610 30,400 -1,920 Descending Houston Center
07:29PM 30.5403 -88.4736 256° West 545 627 28,100 -2,520 Descending Houston Center
07:30PM 30.4953 -88.6742 255° West 534 615 25,300 -2,580 Descending Houston Center
07:31PM 30.4614 -88.8286 256° West 497 572 22,900 -2,040 Descending Houston Center
07:32PM 30.4311 -88.9622 255° West 468 539 21,100 -1,800 Descending Houston Center
07:33PM 30.3964 -89.1061 254° West 467 537 19,300 -1,680 Descending Houston Center
07:34PM 30.3450 -89.2442 247° West 466 536 17,700 -1,920 Descending Houston Center
07:35PM 30.2936 -89.3814 247° West 462 532 15,900 -2,040 Descending Houston Center
07:36PM 30.2556 -89.4844 247° West 451 519 14,500 -1,800 Descending Houston Center
07:37PM 30.2081 -89.6142 247° West 438 504 12,700 -1,560 Descending Houston Center
07:37PM 30.1803 -89.7189 253° West 400 460 11,700 -1,140 Descending Houston Center
07:38PM 30.1686 -89.7883 259° West 373 429 11,000 -1,380 Descending Houston Center
07:39PM 30.1519 -89.8897 259° West 330 380 9,400 -1,680 Descending Houston Center
07:40PM 30.1369 -89.9869 260° West 311 358 7,600 -1,980 Descending Houston Center
07:41PM 30.1225 -90.0806 260° West 303 349 5,400 -2,100 Descending Houston Center
07:42PM 30.1086 -90.1664 259° West 289 333 3,300 -1,680 Descending Houston Center
07:43PM 30.0817 -90.2197 240° Southwest 229 264 2,000 -1,260 Descending Houston Center
07:44PM 30.0347 -90.2361 197° South 170 196 700 -840 Descending Houston Center
07:45PM 30.0003 -90.2481 197° South 159 183 400 -300 Descending Houston Center
07:47PM 29.9833 -90.2500 245° Southwest  Level FlightAware Approximate
07:54PM 29.9934 -90.2580 245° Southwest  Level Estimated
07:55PM 29.9934 -90.2580 245° Southwest  Level Estimated